Littleton, CO (80127)

3:02 AM MDT on July 27, 2016 (GMT -0600)
Mill Hollow | | Change Station

Elev 7125 ft 39.52 °N, 105.16 °W | Updated 14 minutes ago

Partly Cloudy
Partly Cloudy
59.5 °F
Feels Like 59.5 °F
N
0.0
Wind Variable Wind from SSW
Gusts 5.0 mph

Today
High -- | Low -- °F
--% Chance of Precip.
Yesterday
High -- | Low -- °F
Precip. -- in
Pressure 29.94 in
Visibility 10.0 miles
Clouds Few 22000 ft
Dew Point 38 °F
Humidity 45%
Rainfall 0.00 in
Snow Depth Not available.
5:56 AM 8:17 PM
Last Quarter, 45% visible
METAR KAPA 270853Z 17009KT 10SM FEW220 19/13 A3019 RMK AO2 SLP138 T01940128 56000
Pressure 29.94 in
Visibility 10.0 miles
Clouds Few 22000 ft
Dew Point 38 °F
Humidity 45%
Rainfall 0.00 in
Snow Depth Not available.
5:56 AM 8:17 PM
Last Quarter, 45% visible
METAR KAPA 270853Z 17009KT 10SM FEW220 19/13 A3019 RMK AO2 SLP138 T01940128 56000

10-Day Weather Forecast

Almanac

Astronomy

Jul. 27, 2016 Rise Set
Actual Time
Civil Twilight
Nautical Twilight
Astronomical Twilight
Moon
Length of Visible Light
Length of Day
Tomorrow will be .
, % of the Moon is Illuminated

Today's Extremes

State Highs State Lows

Community

WunderPhotos

Upload Photos

1,927,818 photos uploaded!

WunderBlog® & News

Nearby

Air Quality

  Air Quality AQ Index Pollutant
Not available.

Snow Depth

Station Depth Elevation

Earthquake Activity

City Distance Mag. Time & Date
Minimum magnitude displayed is 2.5.

Coastal Water Temperatures

Place Temperature

Stations

Nearby Weather Stations

Station Location Temp. Windchill Dew Point Humidity Wind Precip. Elev Updated Type
                   

Watches & Warnings

There are currently no watches in effect.